createdAt,value
2017-07-22T00:01:12.933Z,99582.63
2017-07-22T00:03:40.464Z,99577.84
2017-07-22T00:06:07.986Z,99581.80
2017-07-22T00:08:35.470Z,99585.68
2017-07-22T00:11:02.980Z,99578.25
2017-07-22T00:13:30.599Z,99567.67
2017-07-22T00:15:58.120Z,99564.21
2017-07-22T00:18:25.620Z,99570.82
2017-07-22T00:20:53.141Z,99565.53
2017-07-22T00:23:20.645Z,99561.16
2017-07-22T00:25:48.172Z,99554.55
2017-07-22T00:28:15.712Z,99552.81
2017-07-22T00:30:43.196Z,99551.91
2017-07-22T00:33:10.713Z,99556.38
2017-07-22T00:35:38.207Z,99551.91
2017-07-22T00:38:05.822Z,99549.77
2017-07-22T00:40:33.421Z,99545.30
2017-07-22T00:43:00.940Z,99537.45
2017-07-22T00:45:28.456Z,99537.45
2017-07-22T00:47:56.025Z,99530.44
2017-07-22T00:50:23.529Z,99532.17
2017-07-22T00:52:51.052Z,99529.65
2017-07-22T00:55:18.540Z,99527.38
2017-07-22T00:57:46.026Z,99526.59
2017-07-22T01:00:13.640Z,99534.52
2017-07-22T01:02:41.128Z,99531.47
2017-07-22T01:05:08.668Z,99530.16
2017-07-22T01:07:36.167Z,99526.19
2017-07-22T01:10:03.693Z,99527.92
2017-07-22T01:12:31.249Z,99533.99
2017-07-22T01:14:58.837Z,99534.94
2017-07-22T01:20:19.361Z,99535.44
2017-07-22T01:22:46.848Z,99525.37
2017-07-22T01:25:14.373Z,99536.85
2017-07-22T01:27:41.864Z,99539.09
2017-07-22T01:30:09.356Z,99540.00
2017-07-22T01:32:36.872Z,99536.03
2017-07-22T01:35:04.383Z,99558.50
2017-07-22T01:37:31.904Z,99573.55
2017-07-22T01:39:59.408Z,99604.86
2017-07-22T01:42:26.925Z,99609.73
2017-07-22T01:44:54.408Z,99608.50
2017-07-22T01:50:14.844Z,99619.08
2017-07-22T01:52:42.362Z,99635.52
2017-07-22T01:55:09.861Z,99647.92
2017-07-22T01:57:37.465Z,99642.55
2017-07-22T02:00:04.948Z,99639.49
2017-07-22T02:02:32.508Z,99636.44
2017-07-22T02:04:59.996Z,99636.44
2017-07-22T02:07:27.488Z,99632.06
2017-07-22T02:09:55.003Z,99634.30
2017-07-22T02:12:22.496Z,99636.44
2017-07-22T02:14:50.028Z,99629.83
2017-07-22T02:20:10.492Z,99630.42
2017-07-22T02:22:37.984Z,99629.59
2017-07-22T02:25:05.504Z,99625.63
2017-07-22T02:27:33.004Z,99616.88
2017-07-22T02:30:00.653Z,99624.31
2017-07-22T02:32:28.158Z,99614.73
2017-07-22T02:34:55.697Z,99610.36
2017-07-22T02:37:23.796Z,99611.40
2017-07-22T02:39:51.292Z,99608.34
2017-07-22T02:42:18.857Z,99608.84
2017-07-22T02:44:46.340Z,99608.75
2017-07-22T02:50:06.784Z,99593.39
2017-07-22T02:52:34.311Z,99601.33
2017-07-22T02:55:01.802Z,99604.87
2017-07-22T02:57:29.333Z,99605.79
2017-07-22T02:59:56.841Z,99596.45
2017-07-22T03:02:24.424Z,99596.45
2017-07-22T03:04:51.940Z,99595.13
2017-07-22T03:07:19.452Z,99602.14
2017-07-22T03:09:46.960Z,99607.43
2017-07-22T03:12:14.473Z,99607.94
2017-07-22T03:14:42.756Z,99605.29
2017-07-22T03:20:03.289Z,99605.29
2017-07-22T03:22:30.821Z,99596.53
2017-07-22T03:24:58.324Z,99607.52
2017-07-22T03:27:25.875Z,99600.91
2017-07-22T03:29:53.457Z,99601.33
2017-07-22T03:32:21.037Z,99607.94
2017-07-22T03:34:48.553Z,99613.72
2017-07-22T03:37:16.100Z,99617.27
2017-07-22T03:39:43.620Z,99623.47
2017-07-22T03:42:11.106Z,99620.51
2017-07-22T03:44:38.628Z,99625.30
2017-07-22T03:49:59.032Z,99627.53
2017-07-22T03:52:26.516Z,99615.81
2017-07-22T03:54:54.024Z,99616.63
2017-07-22T03:57:21.512Z,99618.87
2017-07-22T03:59:49.157Z,99621.51
2017-07-22T04:02:16.746Z,99621.60
2017-07-22T04:04:44.280Z,99619.28
2017-07-22T04:07:11.881Z,99617.45
2017-07-22T04:09:39.400Z,99634.13
2017-07-22T04:12:06.894Z,99621.51
2017-07-22T04:14:34.385Z,99624.66
2017-07-22T04:19:54.768Z,99625.06
2017-07-22T04:22:22.283Z,99623.74
2017-07-22T04:24:49.765Z,99627.62
2017-07-22T04:27:17.288Z,99625.98
2017-07-22T04:29:44.792Z,99628.12
2017-07-22T04:32:12.304Z,99629.94
2017-07-22T04:34:39.797Z,99628.63
2017-07-22T04:37:07.342Z,99632.58
2017-07-22T04:39:34.844Z,99634.81
2017-07-22T04:42:02.360Z,99644.06
2017-07-22T04:44:29.844Z,99640.19
2017-07-22T04:46:57.333Z,99644.06
2017-07-22T04:49:24.845Z,99641.42
2017-07-22T04:51:52.328Z,99639.60
2017-07-22T04:54:19.844Z,99646.30
2017-07-22T04:56:47.357Z,99652.09
2017-07-22T04:59:14.885Z,99651.27
2017-07-22T05:01:42.376Z,99657.46
2017-07-22T05:04:09.888Z,99660.42
2017-07-22T05:06:37.382Z,99661.75
2017-07-22T05:09:04.904Z,99662.66
2017-07-22T05:11:32.939Z,99664.39
2017-07-22T05:14:00.497Z,99663.06
2017-07-22T05:16:27.980Z,99663.89
2017-07-22T05:18:55.496Z,99661.25
2017-07-22T05:21:22.996Z,99665.21
2017-07-22T05:23:50.479Z,99661.25
2017-07-22T05:26:17.988Z,99663.06
2017-07-22T05:28:45.481Z,99667.86
2017-07-22T05:31:12.996Z,99668.77
2017-07-22T05:33:40.497Z,99667.44
2017-07-22T05:36:08.022Z,99666.53
2017-07-22T05:38:35.536Z,99674.96
2017-07-22T05:41:03.062Z,99674.46
2017-07-22T05:43:30.557Z,99679.75
2017-07-22T05:45:58.092Z,99682.80
2017-07-22T05:48:25.594Z,99684.45
2017-07-22T05:50:53.145Z,99686.27
2017-07-22T05:53:20.642Z,99685.77
2017-07-22T05:55:48.142Z,99685.27
2017-07-22T05:58:15.666Z,99691.78
2017-07-22T06:00:43.195Z,99692.28
2017-07-22T06:03:10.726Z,99687.41
2017-07-22T06:05:38.230Z,99692.28
2017-07-22T06:08:05.750Z,99687.91
2017-07-22T06:10:33.245Z,99696.16
2017-07-22T06:13:00.766Z,99687.91
2017-07-22T06:15:28.261Z,99687.32
2017-07-22T06:17:58.955Z,99681.53
2017-07-22T06:20:26.466Z,99682.36
2017-07-22T06:22:53.969Z,99680.63
2017-07-22T06:25:21.489Z,99683.88
2017-07-22T06:27:49.577Z,99676.27
2017-07-22T06:30:17.103Z,99676.04
2017-07-22T06:32:44.597Z,99673.52
2017-07-22T06:35:12.130Z,99677.36
2017-07-22T06:37:39.624Z,99678.09
2017-07-22T06:40:07.149Z,99684.93
2017-07-22T06:42:34.656Z,99674.03
2017-07-22T06:45:02.181Z,99678.73
2017-07-22T06:47:29.681Z,99688.22
2017-07-22T06:49:57.209Z,99696.14
2017-07-22T06:52:24.709Z,99697.88
2017-07-22T06:54:52.238Z,99688.72
2017-07-22T06:57:19.761Z,99700.44
2017-07-22T06:59:47.253Z,99710.51
2017-07-22T07:02:14.773Z,99704.72
2017-07-22T07:04:42.266Z,99700.16
2017-07-22T07:07:09.790Z,99705.83
2017-07-22T07:09:37.320Z,99707.48
2017-07-22T07:12:04.854Z,99709.94
2017-07-22T07:14:32.349Z,99709.13
2017-07-22T07:17:00.233Z,99705.56
2017-07-22T07:19:27.738Z,99712.49
2017-07-22T07:21:55.258Z,99714.23
2017-07-22T07:24:22.761Z,99721.57
2017-07-22T07:26:50.285Z,99721.89
2017-07-22T07:29:17.774Z,99725.86
2017-07-22T07:31:45.265Z,99719.06
2017-07-22T07:34:12.785Z,99723.73
2017-07-22T07:36:40.291Z,99724.88
2017-07-22T07:39:07.818Z,99734.55
2017-07-22T07:41:35.340Z,99726.93
2017-07-22T07:44:02.863Z,99725.93
2017-07-22T07:46:31.006Z,99729.30
2017-07-22T07:48:58.531Z,99720.92
2017-07-22T07:51:26.026Z,99716.38
2017-07-22T07:53:53.575Z,99722.48
2017-07-22T07:56:21.083Z,99731.36
2017-07-22T07:58:48.883Z,99734.06
2017-07-22T08:01:16.385Z,99735.33
2017-07-22T08:03:43.996Z,99731.47
2017-07-22T08:07:31.198Z,99730.62
2017-07-22T08:09:58.759Z,99735.59
2017-07-22T08:12:26.379Z,99733.70
2017-07-22T08:14:53.934Z,99733.69
2017-07-22T08:20:14.266Z,99734.75
2017-07-22T08:22:41.864Z,99731.64
2017-07-22T08:25:09.470Z,99729.00
2017-07-22T08:27:36.981Z,99727.05
2017-07-22T08:30:04.477Z,99725.92
2017-07-22T08:32:32.090Z,99731.45
2017-07-22T08:34:59.605Z,99732.70
2017-07-22T08:37:27.174Z,99727.67
2017-07-22T08:39:54.749Z,99735.58
2017-07-22T08:42:22.289Z,99730.55
2017-07-22T08:44:49.824Z,99733.00
2017-07-22T08:50:09.729Z,99733.79
2017-07-22T08:52:37.266Z,99732.95
2017-07-22T08:55:04.877Z,99744.27
2017-07-22T08:57:32.406Z,99742.28
2017-07-22T08:59:59.905Z,99737.59
2017-07-22T09:02:27.438Z,99733.52
2017-07-22T09:04:54.947Z,99732.55
2017-07-22T09:07:22.481Z,99727.57
2017-07-22T09:09:50.026Z,99739.45
2017-07-22T09:12:17.527Z,99742.27
2017-07-22T09:14:45.069Z,99739.98
2017-07-22T09:20:04.977Z,99742.76
2017-07-22T09:22:32.548Z,99742.79
2017-07-22T09:25:00.085Z,99746.08
2017-07-22T09:27:27.589Z,99744.50
2017-07-22T09:29:55.114Z,99739.46
2017-07-22T09:32:22.614Z,99740.90
2017-07-22T09:34:50.141Z,99746.92
2017-07-22T09:37:17.638Z,99746.75
2017-07-22T09:39:45.189Z,99745.25
2017-07-22T09:42:12.699Z,99740.20
2017-07-22T09:44:40.204Z,99743.05
2017-07-22T09:50:00.351Z,99736.92
2017-07-22T09:52:27.882Z,99742.03
2017-07-22T09:54:55.373Z,99743.59
2017-07-22T09:57:22.896Z,99740.45
2017-07-22T09:59:50.400Z,99744.53
2017-07-22T10:02:18.001Z,99746.67
2017-07-22T10:04:45.505Z,99750.46
2017-07-22T10:07:13.038Z,99748.14
2017-07-22T10:09:40.542Z,99739.64
2017-07-22T10:12:08.049Z,99743.10
2017-07-22T10:14:35.579Z,99738.58
2017-07-22T10:17:03.074Z,99735.16
2017-07-22T10:19:30.598Z,99733.73
2017-07-22T10:21:58.106Z,99735.80
2017-07-22T10:24:25.634Z,99739.50
2017-07-22T10:26:53.141Z,99741.14
2017-07-22T10:29:20.720Z,99736.56
2017-07-22T10:31:48.330Z,99738.30
2017-07-22T10:34:15.878Z,99742.98
2017-07-22T10:36:43.374Z,99744.05
2017-07-22T10:39:10.869Z,99735.45
2017-07-22T10:41:38.393Z,99742.14
2017-07-22T10:44:05.895Z,99742.75
2017-07-22T10:46:33.421Z,99745.39
2017-07-22T10:49:00.926Z,99739.44
2017-07-22T10:51:28.463Z,99735.80
2017-07-22T10:53:55.961Z,99734.16
2017-07-22T10:56:23.497Z,99742.75
2017-07-22T10:58:50.989Z,99736.20
2017-07-22T11:01:18.509Z,99728.69
2017-07-22T11:03:46.005Z,99726.11
2017-07-22T11:06:13.533Z,99726.81
2017-07-22T11:08:41.033Z,99722.85
2017-07-22T11:11:08.533Z,99725.05
2017-07-22T11:13:36.063Z,99721.83
2017-07-22T11:16:03.567Z,99721.23
2017-07-22T11:18:31.098Z,99720.53
2017-07-22T11:20:58.611Z,99712.08
2017-07-22T11:23:26.214Z,99708.11
2017-07-22T11:25:53.719Z,99707.70
2017-07-22T11:28:21.254Z,99704.38
2017-07-22T11:30:48.765Z,99708.64
2017-07-22T11:33:16.299Z,99704.41
2017-07-22T11:35:43.809Z,99707.70
2017-07-22T11:38:11.346Z,99711.52
2017-07-22T11:40:38.842Z,99709.55
2017-07-22T11:43:06.347Z,99716.63
2017-07-22T11:45:33.876Z,99719.63
2017-07-22T11:48:01.378Z,99704.77
2017-07-22T11:50:28.929Z,99712.02
2017-07-22T11:52:56.486Z,99721.91
2017-07-22T11:55:24.018Z,99714.81
2017-07-22T11:57:51.517Z,99716.72
2017-07-22T12:00:19.042Z,99717.39
2017-07-22T12:02:46.537Z,99726.52
2017-07-22T12:05:14.083Z,99716.12
2017-07-22T12:07:41.597Z,99713.66
2017-07-22T12:10:09.146Z,99715.66
2017-07-22T12:12:36.638Z,99711.84
2017-07-22T12:15:04.158Z,99709.61
2017-07-22T12:20:24.467Z,99707.30
2017-07-22T12:22:51.974Z,99716.69
2017-07-22T12:25:19.481Z,99717.59
2017-07-22T12:27:47.065Z,99714.30
2017-07-22T12:30:14.566Z,99725.87
2017-07-22T12:32:42.286Z,99722.58
2017-07-22T12:35:09.786Z,99727.25
2017-07-22T12:37:37.322Z,99728.66
2017-07-22T12:40:04.830Z,99727.92
2017-07-22T12:42:32.372Z,99718.67
2017-07-22T12:44:59.885Z,99715.24
2017-07-22T12:50:20.029Z,99717.09
2017-07-22T12:52:47.562Z,99725.13
2017-07-22T12:55:15.067Z,99723.14
2017-07-22T12:57:43.789Z,99722.38
2017-07-22T13:00:11.280Z,99722.53
2017-07-22T13:02:38.918Z,99716.89
2017-07-22T13:05:06.468Z,99720.36
2017-07-22T13:07:33.972Z,99717.63
2017-07-22T13:10:01.505Z,99713.48
2017-07-22T13:12:28.997Z,99713.69
2017-07-22T13:14:56.529Z,99706.39
2017-07-22T13:20:16.734Z,99706.50
2017-07-22T13:22:44.281Z,99696.25
2017-07-22T13:25:11.839Z,99699.31
2017-07-22T13:27:39.354Z,99695.34
2017-07-22T13:30:06.882Z,99688.24
2017-07-22T13:32:34.562Z,99690.30
2017-07-22T13:35:02.154Z,99686.42
2017-07-22T13:37:29.658Z,99686.74
2017-07-22T13:39:57.206Z,99671.80
2017-07-22T13:42:24.715Z,99666.19
2017-07-22T13:44:52.221Z,99658.77
2017-07-22T13:47:19.777Z,99661.64
2017-07-22T13:49:47.278Z,99654.04
2017-07-22T13:52:14.932Z,99659.33
2017-07-22T13:54:42.425Z,99659.91
2017-07-22T13:57:09.959Z,99658.86
2017-07-22T13:59:37.455Z,99659.03
2017-07-22T14:02:04.978Z,99661.67
2017-07-22T14:04:32.486Z,99665.45
2017-07-22T14:07:00.023Z,99669.02
2017-07-22T14:09:27.529Z,99662.73
2017-07-22T14:11:55.069Z,99661.32
2017-07-22T14:14:22.602Z,99648.70
2017-07-22T14:16:50.389Z,99650.20
2017-07-22T14:19:17.987Z,99648.67
2017-07-22T14:21:45.485Z,99644.80
2017-07-22T14:24:13.017Z,99644.48
2017-07-22T14:26:40.513Z,99642.56
2017-07-22T14:29:08.041Z,99633.23
2017-07-22T14:31:35.541Z,99629.16
2017-07-22T14:34:03.074Z,99626.33
2017-07-22T14:36:30.573Z,99627.66
2017-07-22T14:38:58.098Z,99622.37
2017-07-22T14:41:25.593Z,99624.69
2017-07-22T14:43:53.126Z,99627.95
2017-07-22T14:46:20.689Z,99625.72
2017-07-22T14:48:48.281Z,99631.41
2017-07-22T14:51:15.810Z,99629.56
2017-07-22T14:53:43.318Z,99628.22
2017-07-22T14:56:10.858Z,99635.00
2017-07-22T14:58:38.364Z,99628.98
2017-07-22T15:01:05.890Z,99629.57
2017-07-22T15:03:33.433Z,99630.48
2017-07-22T15:06:00.965Z,99629.07
2017-07-22T15:08:28.457Z,99618.50
2017-07-22T15:10:55.985Z,99617.27
2017-07-22T15:13:23.479Z,99620.33
2017-07-22T15:15:51.014Z,99611.41
2017-07-22T15:18:22.353Z,99610.58
2017-07-22T15:20:49.857Z,99618.41
2017-07-22T15:23:17.385Z,99614.05
2017-07-22T15:25:44.900Z,99630.98
2017-07-22T15:28:12.434Z,99633.48
2017-07-22T15:30:39.946Z,99641.98
2017-07-22T15:33:07.474Z,99669.91
2017-07-22T15:35:34.990Z,99665.70
2017-07-22T15:38:02.525Z,99674.63
2017-07-22T15:40:30.046Z,99677.77
2017-07-22T15:42:57.573Z,99685.40
2017-07-22T15:45:25.074Z,99690.68
2017-07-22T15:50:45.674Z,99677.65
2017-07-22T15:53:13.233Z,99671.45
2017-07-22T15:55:40.787Z,99663.63
2017-07-22T15:58:08.298Z,99663.63
2017-07-22T16:00:35.857Z,99649.27
2017-07-22T16:03:03.454Z,99639.53
2017-07-22T16:05:30.975Z,99639.12
2017-07-22T16:07:58.555Z,99635.07
2017-07-22T16:10:26.086Z,99634.66
2017-07-22T16:12:53.587Z,99629.88
2017-07-22T16:15:21.112Z,99629.79
2017-07-22T16:17:48.626Z,99630.61
2017-07-22T16:20:16.154Z,99631.61
2017-07-22T16:22:43.657Z,99629.38
2017-07-22T16:25:11.154Z,99624.50
2017-07-22T16:27:38.682Z,99626.33
2017-07-22T16:30:06.438Z,99626.41
2017-07-22T16:32:33.979Z,99630.78
2017-07-22T16:35:01.477Z,99628.32
2017-07-22T16:37:29.221Z,99626.67
2017-07-22T16:39:56.740Z,99621.08
2017-07-22T16:42:24.269Z,99627.17
2017-07-22T16:44:51.777Z,99621.58
2017-07-22T16:47:19.328Z,99618.44
2017-07-22T16:49:46.818Z,99614.06
2017-07-22T16:52:14.324Z,99611.02
2017-07-22T16:54:42.081Z,99606.05
2017-07-22T16:57:09.981Z,99607.88
2017-07-22T16:59:37.501Z,99602.59
2017-07-22T17:02:04.997Z,99594.25
2017-07-22T17:04:32.522Z,99597.31
2017-07-22T17:07:00.025Z,99598.63
2017-07-22T17:09:27.553Z,99598.72
2017-07-22T17:11:55.051Z,99598.92
2017-07-22T17:14:22.559Z,99594.96
2017-07-22T17:16:50.090Z,99597.20
2017-07-22T17:19:17.582Z,99599.34
2017-07-22T17:21:45.106Z,99601.56
2017-07-22T17:24:12.735Z,99601.56
2017-07-22T17:26:40.262Z,99598.92
2017-07-22T17:29:07.781Z,99601.66
2017-07-22T17:31:35.308Z,99593.82
2017-07-22T17:34:02.808Z,99592.91
2017-07-22T17:36:30.333Z,99598.69
2017-07-22T17:38:57.838Z,99595.46
2017-07-22T17:41:25.378Z,99595.05
2017-07-22T17:43:52.906Z,99596.78
2017-07-22T17:46:21.124Z,99594.64
2017-07-22T17:48:48.642Z,99596.87
2017-07-22T17:51:16.382Z,99600.51
2017-07-22T17:53:43.918Z,99601.83
2017-07-22T17:56:11.422Z,99604.56
2017-07-22T17:58:38.967Z,99597.95
2017-07-22T18:01:06.490Z,99601.01
2017-07-22T18:03:34.014Z,99597.95
2017-07-22T18:06:01.526Z,99601.01
2017-07-22T18:08:29.054Z,99601.92
2017-07-22T18:10:56.549Z,99605.55
2017-07-22T18:13:24.319Z,99609.52
2017-07-22T18:15:51.830Z,99614.71
